sensor_id;sensor_type;location;lat;lon;timestamp;P1;durP1;ratioP1;P2;durP2;ratioP2
46429;SDS011;32131;53.454;-6.180;2022-12-07T00:04:20;11.48;;;3.45;;
46429;SDS011;32131;53.454;-6.180;2022-12-07T00:06:51;14.40;;;3.85;;
46429;SDS011;32131;53.454;-6.180;2022-12-07T00:09:20;9.48;;;3.58;;
46429;SDS011;32131;53.454;-6.180;2022-12-07T00:11:49;13.32;;;4.25;;
46429;SDS011;32131;53.454;-6.180;2022-12-07T00:14:18;7.78;;;3.70;;
46429;SDS011;32131;53.454;-6.180;2022-12-07T00:16:48;10.43;;;3.92;;
46429;SDS011;32131;53.454;-6.180;2022-12-07T00:19:17;8.85;;;3.58;;
46429;SDS011;32131;53.454;-6.180;2022-12-07T00:21:46;8.70;;;3.60;;
46429;SDS011;32131;53.454;-6.180;2022-12-07T00:24:15;7.07;;;2.97;;
46429;SDS011;32131;53.454;-6.180;2022-12-07T00:26:43;14.82;;;3.75;;
46429;SDS011;32131;53.454;-6.180;2022-12-07T00:29:12;12.65;;;3.63;;
46429;SDS011;32131;53.454;-6.180;2022-12-07T00:31:43;10.18;;;3.67;;
46429;SDS011;32131;53.454;-6.180;2022-12-07T00:34:12;9.85;;;3.03;;
46429;SDS011;32131;53.454;-6.180;2022-12-07T00:36:42;8.10;;;3.38;;
46429;SDS011;32131;53.454;-6.180;2022-12-07T00:39:10;8.30;;;3.42;;
46429;SDS011;32131;53.454;-6.180;2022-12-07T00:41:39;9.07;;;3.33;;
46429;SDS011;32131;53.454;-6.180;2022-12-07T00:44:08;9.60;;;3.67;;
46429;SDS011;32131;53.454;-6.180;2022-12-07T00:46:36;11.10;;;2.97;;
46429;SDS011;32131;53.454;-6.180;2022-12-07T00:49:04;8.23;;;3.03;;
46429;SDS011;32131;53.454;-6.180;2022-12-07T00:51:32;14.20;;;3.40;;
46429;SDS011;32131;53.454;-6.180;2022-12-07T00:54:00;9.32;;;2.92;;
46429;SDS011;32131;53.454;-6.180;2022-12-07T00:56:28;12.70;;;3.25;;
46429;SDS011;32131;53.454;-6.180;2022-12-07T00:59:02;7.43;;;2.63;;
46429;SDS011;32131;53.454;-6.180;2022-12-07T01:01:31;8.18;;;2.92;;
46429;SDS011;32131;53.454;-6.180;2022-12-07T01:06:29;5.78;;;2.30;;
46429;SDS011;32131;53.454;-6.180;2022-12-07T01:08:57;9.18;;;2.85;;
46429;SDS011;32131;53.454;-6.180;2022-12-07T01:11:26;6.10;;;2.35;;
46429;SDS011;32131;53.454;-6.180;2022-12-07T01:13:56;3.72;;;2.08;;
46429;SDS011;32131;53.454;-6.180;2022-12-07T01:21:25;10.40;;;2.55;;
46429;SDS011;32131;53.454;-6.180;2022-12-07T01:23:56;8.90;;;2.08;;
46429;SDS011;32131;53.454;-6.180;2022-12-07T01:26:25;13.85;;;2.05;;
46429;SDS011;32131;53.454;-6.180;2022-12-07T01:28:53;5.35;;;2.20;;
46429;SDS011;32131;53.454;-6.180;2022-12-07T01:31:23;5.55;;;1.95;;
46429;SDS011;32131;53.454;-6.180;2022-12-07T01:33:55;5.80;;;1.83;;
46429;SDS011;32131;53.454;-6.180;2022-12-07T01:36:25;8.32;;;2.17;;
46429;SDS011;32131;53.454;-6.180;2022-12-07T01:38:55;2.50;;;1.60;;
46429;SDS011;32131;53.454;-6.180;2022-12-07T01:41:26;4.43;;;1.58;;
46429;SDS011;32131;53.454;-6.180;2022-12-07T01:44:12;5.88;;;1.80;;
46429;SDS011;32131;53.454;-6.180;2022-12-07T01:46:44;4.55;;;1.80;;
46429;SDS011;32131;53.454;-6.180;2022-12-07T01:49:16;4.70;;;1.77;;
46429;SDS011;32131;53.454;-6.180;2022-12-07T01:51:48;4.57;;;1.30;;
46429;SDS011;32131;53.454;-6.180;2022-12-07T01:54:19;4.35;;;1.83;;
46429;SDS011;32131;53.454;-6.180;2022-12-07T01:56:50;6.93;;;1.35;;
46429;SDS011;32131;53.454;-6.180;2022-12-07T01:59:21;7.68;;;1.48;;
46429;SDS011;32131;53.454;-6.180;2022-12-07T02:01:52;6.75;;;1.55;;
46429;SDS011;32131;53.454;-6.180;2022-12-07T02:04:23;8.10;;;1.80;;
46429;SDS011;32131;53.454;-6.180;2022-12-07T02:06:52;6.57;;;1.80;;
46429;SDS011;32131;53.454;-6.180;2022-12-07T02:09:22;3.65;;;1.67;;
46429;SDS011;32131;53.454;-6.180;2022-12-07T02:11:50;6.10;;;1.80;;
46429;SDS011;32131;53.454;-6.180;2022-12-07T02:14:19;6.07;;;2.07;;
46429;SDS011;32131;53.454;-6.180;2022-12-07T02:16:51;2.83;;;1.80;;
46429;SDS011;32131;53.454;-6.180;2022-12-07T02:22:39;7.05;;;2.13;;
46429;SDS011;32131;53.454;-6.180;2022-12-07T02:25:32;4.82;;;1.60;;
46429;SDS011;32131;53.454;-6.180;2022-12-07T02:28:17;7.35;;;2.38;;
46429;SDS011;32131;53.454;-6.180;2022-12-07T02:30:56;6.25;;;2.10;;
46429;SDS011;32131;53.454;-6.180;2022-12-07T02:33:30;9.57;;;2.50;;
46429;SDS011;32131;53.454;-6.180;2022-12-07T02:36:04;4.05;;;1.95;;
46429;SDS011;32131;53.454;-6.180;2022-12-07T02:38:37;3.30;;;1.90;;
46429;SDS011;32131;53.454;-6.180;2022-12-07T02:41:12;6.10;;;2.10;;
46429;SDS011;32131;53.454;-6.180;2022-12-07T02:43:45;5.85;;;2.08;;
46429;SDS011;32131;53.454;-6.180;2022-12-07T02:46:20;6.10;;;1.90;;
46429;SDS011;32131;53.454;-6.180;2022-12-07T02:48:51;4.78;;;2.30;;
46429;SDS011;32131;53.454;-6.180;2022-12-07T02:51:21;5.93;;;2.47;;
46429;SDS011;32131;53.454;-6.180;2022-12-07T02:53:50;4.95;;;1.67;;
46429;SDS011;32131;53.454;-6.180;2022-12-07T02:56:19;6.75;;;2.45;;
46429;SDS011;32131;53.454;-6.180;2022-12-07T02:58:58;9.70;;;2.75;;
46429;SDS011;32131;53.454;-6.180;2022-12-07T03:01:38;7.55;;;2.67;;
46429;SDS011;32131;53.454;-6.180;2022-12-07T03:04:20;11.90;;;3.15;;
46429;SDS011;32131;53.454;-6.180;2022-12-07T03:07:00;6.28;;;2.33;;
46429;SDS011;32131;53.454;-6.180;2022-12-07T03:09:34;16.80;;;2.72;;
46429;SDS011;32131;53.454;-6.180;2022-12-07T03:12:08;16.65;;;3.17;;
46429;SDS011;32131;53.454;-6.180;2022-12-07T03:14:40;11.10;;;2.97;;
46429;SDS011;32131;53.454;-6.180;2022-12-07T03:17:13;6.85;;;2.92;;
46429;SDS011;32131;53.454;-6.180;2022-12-07T03:19:45;8.90;;;3.05;;
46429;SDS011;32131;53.454;-6.180;2022-12-07T03:22:16;14.35;;;3.80;;
46429;SDS011;32131;53.454;-6.180;2022-12-07T03:24:46;6.60;;;2.88;;
46429;SDS011;32131;53.454;-6.180;2022-12-07T03:27:19;10.32;;;2.53;;
46429;SDS011;32131;53.454;-6.180;2022-12-07T03:29:51;5.20;;;2.40;;
46429;SDS011;32131;53.454;-6.180;2022-12-07T03:32:29;9.02;;;2.63;;
46429;SDS011;32131;53.454;-6.180;2022-12-07T03:35:01;6.38;;;2.85;;
46429;SDS011;32131;53.454;-6.180;2022-12-07T03:37:34;5.28;;;2.83;;
46429;SDS011;32131;53.454;-6.180;2022-12-07T03:40:08;7.68;;;2.42;;
46429;SDS011;32131;53.454;-6.180;2022-12-07T03:42:42;10.73;;;2.40;;
46429;SDS011;32131;53.454;-6.180;2022-12-07T03:45:11;9.88;;;2.53;;
46429;SDS011;32131;53.454;-6.180;2022-12-07T03:47:43;5.83;;;2.20;;
46429;SDS011;32131;53.454;-6.180;2022-12-07T03:50:16;6.55;;;2.10;;
46429;SDS011;32131;53.454;-6.180;2022-12-07T03:52:52;8.10;;;2.47;;
46429;SDS011;32131;53.454;-6.180;2022-12-07T03:55:25;10.05;;;2.72;;
46429;SDS011;32131;53.454;-6.180;2022-12-07T03:57:56;5.40;;;2.30;;
46429;SDS011;32131;53.454;-6.180;2022-12-07T04:00:27;7.75;;;2.17;;
46429;SDS011;32131;53.454;-6.180;2022-12-07T04:02:57;11.95;;;2.58;;
46429;SDS011;32131;53.454;-6.180;2022-12-07T04:07:54;7.78;;;2.60;;
46429;SDS011;32131;53.454;-6.180;2022-12-07T04:10:22;12.40;;;2.72;;
46429;SDS011;32131;53.454;-6.180;2022-12-07T04:12:50;7.47;;;2.20;;
46429;SDS011;32131;53.454;-6.180;2022-12-07T04:15:19;7.70;;;2.75;;
46429;SDS011;32131;53.454;-6.180;2022-12-07T04:17:47;7.95;;;2.53;;
46429;SDS011;32131;53.454;-6.180;2022-12-07T04:20:17;6.15;;;2.40;;
46429;SDS011;32131;53.454;-6.180;2022-12-07T04:22:45;8.23;;;2.35;;
46429;SDS011;32131;53.454;-6.180;2022-12-07T04:25:14;7.22;;;2.13;;
46429;SDS011;32131;53.454;-6.180;2022-12-07T04:27:42;8.13;;;2.53;;
46429;SDS011;32131;53.454;-6.180;2022-12-07T04:30:10;11.57;;;2.70;;
46429;SDS011;32131;53.454;-6.180;2022-12-07T04:32:38;8.32;;;2.58;;
46429;SDS011;32131;53.454;-6.180;2022-12-07T04:35:07;8.50;;;2.22;;
46429;SDS011;32131;53.454;-6.180;2022-12-07T04:37:37;10.37;;;2.43;;
46429;SDS011;32131;53.454;-6.180;2022-12-07T04:42:37;7.30;;;2.40;;
46429;SDS011;32131;53.454;-6.180;2022-12-07T04:45:06;8.52;;;3.00;;
46429;SDS011;32131;53.454;-6.180;2022-12-07T04:47:35;4.65;;;2.25;;
46429;SDS011;32131;53.454;-6.180;2022-12-07T04:50:04;7.07;;;2.00;;
46429;SDS011;32131;53.454;-6.180;2022-12-07T04:52:33;11.95;;;2.60;;
46429;SDS011;32131;53.454;-6.180;2022-12-07T04:55:04;10.52;;;2.53;;
46429;SDS011;32131;53.454;-6.180;2022-12-07T05:00:00;7.03;;;2.75;;
46429;SDS011;32131;53.454;-6.180;2022-12-07T05:02:31;6.63;;;1.85;;
46429;SDS011;32131;53.454;-6.180;2022-12-07T05:04:59;4.05;;;1.90;;
46429;SDS011;32131;53.454;-6.180;2022-12-07T05:07:28;8.88;;;2.40;;
46429;SDS011;32131;53.454;-6.180;2022-12-07T05:09:56;5.25;;;2.22;;
46429;SDS011;32131;53.454;-6.180;2022-12-07T05:12:25;7.97;;;2.60;;
46429;SDS011;32131;53.454;-6.180;2022-12-07T05:14:54;5.60;;;2.38;;
46429;SDS011;32131;53.454;-6.180;2022-12-07T05:17:22;7.13;;;2.55;;
46429;SDS011;32131;53.454;-6.180;2022-12-07T05:19:53;4.25;;;1.90;;
46429;SDS011;32131;53.454;-6.180;2022-12-07T05:22:21;5.15;;;2.42;;
46429;SDS011;32131;53.454;-6.180;2022-12-07T05:24:51;5.68;;;2.22;;
46429;SDS011;32131;53.454;-6.180;2022-12-07T05:27:19;10.07;;;2.90;;
46429;SDS011;32131;53.454;-6.180;2022-12-07T05:29:50;9.80;;;2.85;;
46429;SDS011;32131;53.454;-6.180;2022-12-07T05:32:19;7.07;;;2.13;;
46429;SDS011;32131;53.454;-6.180;2022-12-07T05:34:47;4.93;;;2.47;;
46429;SDS011;32131;53.454;-6.180;2022-12-07T05:37:15;7.90;;;2.78;;
46429;SDS011;32131;53.454;-6.180;2022-12-07T05:39:44;3.92;;;2.10;;
46429;SDS011;32131;53.454;-6.180;2022-12-07T05:42:13;10.07;;;2.60;;
46429;SDS011;32131;53.454;-6.180;2022-12-07T05:44:40;5.70;;;2.00;;
46429;SDS011;32131;53.454;-6.180;2022-12-07T05:47:11;8.15;;;2.05;;
46429;SDS011;32131;53.454;-6.180;2022-12-07T05:49:41;11.85;;;2.20;;
46429;SDS011;32131;53.454;-6.180;2022-12-07T05:52:09;7.18;;;2.70;;
46429;SDS011;32131;53.454;-6.180;2022-12-07T05:54:37;5.57;;;2.25;;
46429;SDS011;32131;53.454;-6.180;2022-12-07T05:57:05;7.93;;;1.90;;
46429;SDS011;32131;53.454;-6.180;2022-12-07T05:59:33;6.85;;;1.92;;
46429;SDS011;32131;53.454;-6.180;2022-12-07T06:02:01;6.00;;;2.20;;
46429;SDS011;32131;53.454;-6.180;2022-12-07T06:04:33;6.13;;;1.80;;
46429;SDS011;32131;53.454;-6.180;2022-12-07T06:07:02;6.55;;;2.45;;
46429;SDS011;32131;53.454;-6.180;2022-12-07T06:09:31;8.68;;;2.25;;
46429;SDS011;32131;53.454;-6.180;2022-12-07T06:12:00;3.35;;;1.83;;
46429;SDS011;32131;53.454;-6.180;2022-12-07T06:14:45;7.75;;;2.10;;
46429;SDS011;32131;53.454;-6.180;2022-12-07T06:17:14;4.68;;;2.00;;
46429;SDS011;32131;53.454;-6.180;2022-12-07T06:19:44;5.40;;;1.55;;
46429;SDS011;32131;53.454;-6.180;2022-12-07T06:22:12;6.78;;;2.35;;
46429;SDS011;32131;53.454;-6.180;2022-12-07T06:24:42;5.70;;;2.25;;
46429;SDS011;32131;53.454;-6.180;2022-12-07T06:27:12;6.78;;;2.53;;
46429;SDS011;32131;53.454;-6.180;2022-12-07T06:29:41;4.28;;;1.45;;
46429;SDS011;32131;53.454;-6.180;2022-12-07T06:32:09;6.78;;;2.45;;
46429;SDS011;32131;53.454;-6.180;2022-12-07T06:34:38;6.73;;;1.77;;
46429;SDS011;32131;53.454;-6.180;2022-12-07T06:37:08;4.80;;;1.85;;
46429;SDS011;32131;53.454;-6.180;2022-12-07T06:39:36;4.30;;;1.52;;
46429;SDS011;32131;53.454;-6.180;2022-12-07T06:42:05;5.18;;;1.73;;
46429;SDS011;32131;53.454;-6.180;2022-12-07T06:44:33;6.03;;;1.90;;
46429;SDS011;32131;53.454;-6.180;2022-12-07T06:47:01;7.05;;;1.70;;
46429;SDS011;32131;53.454;-6.180;2022-12-07T06:49:50;5.40;;;1.90;;
46429;SDS011;32131;53.454;-6.180;2022-12-07T06:52:20;7.97;;;1.85;;
46429;SDS011;32131;53.454;-6.180;2022-12-07T06:54:48;6.47;;;1.83;;
46429;SDS011;32131;53.454;-6.180;2022-12-07T06:57:16;5.05;;;1.60;;
46429;SDS011;32131;53.454;-6.180;2022-12-07T06:59:46;10.95;;;2.28;;
46429;SDS011;32131;53.454;-6.180;2022-12-07T07:02:15;6.50;;;2.20;;
46429;SDS011;32131;53.454;-6.180;2022-12-07T07:04:43;6.85;;;2.47;;
46429;SDS011;32131;53.454;-6.180;2022-12-07T07:07:11;5.45;;;1.83;;
46429;SDS011;32131;53.454;-6.180;2022-12-07T07:09:41;9.32;;;1.65;;
46429;SDS011;32131;53.454;-6.180;2022-12-07T07:12:09;13.38;;;2.17;;
46429;SDS011;32131;53.454;-6.180;2022-12-07T07:14:37;5.78;;;2.25;;
46429;SDS011;32131;53.454;-6.180;2022-12-07T07:17:05;6.40;;;1.90;;
46429;SDS011;32131;53.454;-6.180;2022-12-07T07:19:34;8.98;;;2.42;;
46429;SDS011;32131;53.454;-6.180;2022-12-07T07:22:03;3.88;;;1.95;;
46429;SDS011;32131;53.454;-6.180;2022-12-07T07:24:32;2.67;;;1.50;;
46429;SDS011;32131;53.454;-6.180;2022-12-07T07:27:01;3.90;;;1.90;;
46429;SDS011;32131;53.454;-6.180;2022-12-07T07:29:30;5.82;;;2.08;;
46429;SDS011;32131;53.454;-6.180;2022-12-07T07:31:59;5.43;;;1.85;;
46429;SDS011;32131;53.454;-6.180;2022-12-07T07:34:33;6.75;;;1.95;;
46429;SDS011;32131;53.454;-6.180;2022-12-07T07:37:03;6.72;;;2.05;;
46429;SDS011;32131;53.454;-6.180;2022-12-07T07:39:32;7.82;;;2.20;;
46429;SDS011;32131;53.454;-6.180;2022-12-07T07:42:01;4.43;;;1.77;;
46429;SDS011;32131;53.454;-6.180;2022-12-07T07:44:29;8.57;;;2.45;;
46429;SDS011;32131;53.454;-6.180;2022-12-07T07:47:00;10.18;;;2.15;;
46429;SDS011;32131;53.454;-6.180;2022-12-07T07:49:29;9.93;;;2.20;;
46429;SDS011;32131;53.454;-6.180;2022-12-07T07:51:57;8.45;;;2.55;;
46429;SDS011;32131;53.454;-6.180;2022-12-07T07:54:25;7.22;;;2.13;;
46429;SDS011;32131;53.454;-6.180;2022-12-07T07:56:54;6.30;;;2.10;;
46429;SDS011;32131;53.454;-6.180;2022-12-07T07:59:31;8.13;;;1.65;;
46429;SDS011;32131;53.454;-6.180;2022-12-07T08:01:59;3.67;;;1.40;;
46429;SDS011;32131;53.454;-6.180;2022-12-07T08:04:27;4.32;;;1.80;;
46429;SDS011;32131;53.454;-6.180;2022-12-07T08:06:56;9.82;;;2.45;;
46429;SDS011;32131;53.454;-6.180;2022-12-07T08:09:24;5.43;;;1.80;;
46429;SDS011;32131;53.454;-6.180;2022-12-07T08:11:52;8.95;;;2.38;;
46429;SDS011;32131;53.454;-6.180;2022-12-07T08:14:21;3.67;;;1.38;;
46429;SDS011;32131;53.454;-6.180;2022-12-07T08:16:50;4.55;;;1.88;;
46429;SDS011;32131;53.454;-6.180;2022-12-07T08:19:18;6.70;;;2.60;;
46429;SDS011;32131;53.454;-6.180;2022-12-07T08:21:46;5.22;;;2.03;;
46429;SDS011;32131;53.454;-6.180;2022-12-07T08:24:15;5.95;;;2.17;;
46429;SDS011;32131;53.454;-6.180;2022-12-07T08:26:43;7.45;;;1.65;;
46429;SDS011;32131;53.454;-6.180;2022-12-07T08:29:11;5.03;;;1.80;;
46429;SDS011;32131;53.454;-6.180;2022-12-07T08:31:40;8.70;;;2.38;;
46429;SDS011;32131;53.454;-6.180;2022-12-07T08:34:11;8.45;;;1.90;;
46429;SDS011;32131;53.454;-6.180;2022-12-07T08:36:39;8.38;;;2.17;;
46429;SDS011;32131;53.454;-6.180;2022-12-07T08:39:08;8.93;;;1.95;;
46429;SDS011;32131;53.454;-6.180;2022-12-07T08:41:56;6.68;;;1.60;;
46429;SDS011;32131;53.454;-6.180;2022-12-07T08:44:24;4.75;;;1.42;;
46429;SDS011;32131;53.454;-6.180;2022-12-07T08:46:53;4.18;;;1.60;;
46429;SDS011;32131;53.454;-6.180;2022-12-07T08:49:27;6.72;;;1.67;;
46429;SDS011;32131;53.454;-6.180;2022-12-07T08:52:00;6.85;;;1.50;;
46429;SDS011;32131;53.454;-6.180;2022-12-07T08:54:31;4.68;;;1.20;;
46429;SDS011;32131;53.454;-6.180;2022-12-07T08:57:03;5.53;;;2.05;;
46429;SDS011;32131;53.454;-6.180;2022-12-07T08:59:33;3.13;;;1.65;;
46429;SDS011;32131;53.454;-6.180;2022-12-07T09:02:03;1.88;;;1.20;;
46429;SDS011;32131;53.454;-6.180;2022-12-07T09:04:33;3.42;;;1.30;;
46429;SDS011;32131;53.454;-6.180;2022-12-07T09:07:01;9.93;;;1.70;;
46429;SDS011;32131;53.454;-6.180;2022-12-07T09:09:31;3.25;;;1.38;;
46429;SDS011;32131;53.454;-6.180;2022-12-07T09:12:01;3.70;;;1.38;;
46429;SDS011;32131;53.454;-6.180;2022-12-07T09:14:29;4.70;;;2.13;;
46429;SDS011;32131;53.454;-6.180;2022-12-07T09:17:04;2.42;;;1.25;;
46429;SDS011;32131;53.454;-6.180;2022-12-07T09:19:34;8.27;;;1.73;;
46429;SDS011;32131;53.454;-6.180;2022-12-07T09:22:03;4.68;;;1.73;;
46429;SDS011;32131;53.454;-6.180;2022-12-07T09:24:32;4.43;;;1.80;;
46429;SDS011;32131;53.454;-6.180;2022-12-07T09:27:00;4.60;;;1.33;;
46429;SDS011;32131;53.454;-6.180;2022-12-07T09:29:28;4.45;;;1.20;;
46429;SDS011;32131;53.454;-6.180;2022-12-07T09:31:56;6.82;;;1.60;;
46429;SDS011;32131;53.454;-6.180;2022-12-07T09:34:25;5.07;;;1.70;;
46429;SDS011;32131;53.454;-6.180;2022-12-07T09:36:55;3.35;;;1.27;;
46429;SDS011;32131;53.454;-6.180;2022-12-07T09:39:23;5.07;;;1.10;;
46429;SDS011;32131;53.454;-6.180;2022-12-07T09:41:51;7.68;;;1.92;;
46429;SDS011;32131;53.454;-6.180;2022-12-07T09:44:21;4.20;;;1.60;;
46429;SDS011;32131;53.454;-6.180;2022-12-07T09:46:52;6.32;;;1.33;;
46429;SDS011;32131;53.454;-6.180;2022-12-07T09:49:21;3.10;;;1.05;;
46429;SDS011;32131;53.454;-6.180;2022-12-07T09:52:00;7.65;;;1.13;;
46429;SDS011;32131;53.454;-6.180;2022-12-07T09:54:30;4.20;;;1.65;;
46429;SDS011;32131;53.454;-6.180;2022-12-07T09:56:58;8.65;;;1.90;;
46429;SDS011;32131;53.454;-6.180;2022-12-07T09:59:27;3.58;;;1.17;;
46429;SDS011;32131;53.454;-6.180;2022-12-07T10:02:19;4.68;;;1.15;;
46429;SDS011;32131;53.454;-6.180;2022-12-07T10:04:53;4.80;;;1.45;;
46429;SDS011;32131;53.454;-6.180;2022-12-07T10:07:22;6.15;;;2.05;;
46429;SDS011;32131;53.454;-6.180;2022-12-07T10:09:51;8.32;;;1.52;;
46429;SDS011;32131;53.454;-6.180;2022-12-07T10:12:20;5.18;;;1.58;;
46429;SDS011;32131;53.454;-6.180;2022-12-07T10:14:54;6.38;;;1.23;;
46429;SDS011;32131;53.454;-6.180;2022-12-07T10:17:34;4.57;;;1.08;;
46429;SDS011;32131;53.454;-6.180;2022-12-07T10:20:23;4.28;;;1.55;;
46429;SDS011;32131;53.454;-6.180;2022-12-07T10:22:58;6.93;;;1.35;;
46429;SDS011;32131;53.454;-6.180;2022-12-07T10:25:30;5.68;;;1.55;;
46429;SDS011;32131;53.454;-6.180;2022-12-07T10:28:01;3.85;;;1.52;;
46429;SDS011;32131;53.454;-6.180;2022-12-07T10:30:45;3.28;;;1.05;;
46429;SDS011;32131;53.454;-6.180;2022-12-07T10:33:33;3.03;;;1.17;;
46429;SDS011;32131;53.454;-6.180;2022-12-07T10:36:15;2.92;;;1.05;;
46429;SDS011;32131;53.454;-6.180;2022-12-07T10:38:48;3.65;;;1.05;;
46429;SDS011;32131;53.454;-6.180;2022-12-07T10:41:19;2.55;;;0.95;;
46429;SDS011;32131;53.454;-6.180;2022-12-07T10:43:49;2.70;;;1.35;;
46429;SDS011;32131;53.454;-6.180;2022-12-07T10:49:35;4.10;;;1.30;;
46429;SDS011;32131;53.454;-6.180;2022-12-07T10:52:18;6.35;;;1.45;;
46429;SDS011;32131;53.454;-6.180;2022-12-07T10:55:01;7.00;;;2.40;;
46429;SDS011;32131;53.454;-6.180;2022-12-07T10:57:45;2.85;;;1.17;;
46429;SDS011;32131;53.454;-6.180;2022-12-07T11:00:21;5.18;;;1.00;;
46429;SDS011;32131;53.454;-6.180;2022-12-07T11:02:54;4.40;;;1.30;;
46429;SDS011;32131;53.454;-6.180;2022-12-07T11:05:39;4.85;;;1.40;;
46429;SDS011;32131;53.454;-6.180;2022-12-07T11:08:14;6.68;;;1.45;;
46429;SDS011;32131;53.454;-6.180;2022-12-07T11:10:52;8.38;;;0.73;;
46429;SDS011;32131;53.454;-6.180;2022-12-07T11:13:27;4.15;;;1.27;;
46429;SDS011;32131;53.454;-6.180;2022-12-07T11:16:09;3.85;;;1.10;;
46429;SDS011;32131;53.454;-6.180;2022-12-07T11:19:00;2.58;;;1.00;;
46429;SDS011;32131;53.454;-6.180;2022-12-07T11:21:55;1.20;;;0.50;;
46429;SDS011;32131;53.454;-6.180;2022-12-07T11:24:31;1.70;;;0.80;;
46429;SDS011;32131;53.454;-6.180;2022-12-07T11:27:13;5.93;;;1.08;;
46429;SDS011;32131;53.454;-6.180;2022-12-07T11:30:08;3.53;;;0.68;;
46429;SDS011;32131;53.454;-6.180;2022-12-07T11:32:45;3.13;;;0.52;;
46429;SDS011;32131;53.454;-6.180;2022-12-07T11:35:23;1.60;;;0.40;;
46429;SDS011;32131;53.454;-6.180;2022-12-07T11:38:07;4.45;;;0.52;;
46429;SDS011;32131;53.454;-6.180;2022-12-07T11:40:40;1.80;;;0.70;;
46429;SDS011;32131;53.454;-6.180;2022-12-07T11:43:15;4.80;;;0.70;;
46429;SDS011;32131;53.454;-6.180;2022-12-07T11:45:53;4.88;;;1.08;;
46429;SDS011;32131;53.454;-6.180;2022-12-07T11:48:29;2.85;;;0.68;;
46429;SDS011;32131;53.454;-6.180;2022-12-07T11:51:01;2.60;;;0.80;;
46429;SDS011;32131;53.454;-6.180;2022-12-07T11:53:33;8.68;;;0.85;;
46429;SDS011;32131;53.454;-6.180;2022-12-07T11:56:08;4.20;;;0.75;;
46429;SDS011;32131;53.454;-6.180;2022-12-07T11:58:47;4.70;;;0.70;;
46429;SDS011;32131;53.454;-6.180;2022-12-07T12:01:24;5.13;;;2.08;;
46429;SDS011;32131;53.454;-6.180;2022-12-07T12:04:01;4.95;;;2.28;;
46429;SDS011;32131;53.454;-6.180;2022-12-07T12:06:41;4.43;;;0.93;;
46429;SDS011;32131;53.454;-6.180;2022-12-07T12:09:12;1.40;;;0.45;;
46429;SDS011;32131;53.454;-6.180;2022-12-07T12:12:07;2.42;;;0.45;;
46429;SDS011;32131;53.454;-6.180;2022-12-07T12:15:15;2.13;;;0.30;;
46429;SDS011;32131;53.454;-6.180;2022-12-07T12:18:03;3.25;;;0.40;;
46429;SDS011;32131;53.454;-6.180;2022-12-07T12:20:45;3.58;;;0.80;;
46429;SDS011;32131;53.454;-6.180;2022-12-07T12:23:18;2.63;;;0.50;;
46429;SDS011;32131;53.454;-6.180;2022-12-07T12:25:50;3.05;;;0.50;;
46429;SDS011;32131;53.454;-6.180;2022-12-07T12:28:22;2.78;;;0.50;;
46429;SDS011;32131;53.454;-6.180;2022-12-07T12:31:09;3.75;;;0.30;;
46429;SDS011;32131;53.454;-6.180;2022-12-07T12:33:44;1.70;;;0.50;;
46429;SDS011;32131;53.454;-6.180;2022-12-07T12:36:22;2.05;;;0.52;;
46429;SDS011;32131;53.454;-6.180;2022-12-07T12:39:07;3.22;;;0.88;;
46429;SDS011;32131;53.454;-6.180;2022-12-07T12:41:52;2.85;;;0.50;;
46429;SDS011;32131;53.454;-6.180;2022-12-07T12:48:09;0.82;;;0.40;;
46429;SDS011;32131;53.454;-6.180;2022-12-07T12:54:10;4.53;;;0.90;;
46429;SDS011;32131;53.454;-6.180;2022-12-07T12:56:42;1.17;;;0.35;;
46429;SDS011;32131;53.454;-6.180;2022-12-07T12:59:22;2.05;;;0.82;;
46429;SDS011;32131;53.454;-6.180;2022-12-07T13:01:56;2.08;;;0.63;;
46429;SDS011;32131;53.454;-6.180;2022-12-07T13:10:37;2.53;;;0.80;;
46429;SDS011;32131;53.454;-6.180;2022-12-07T13:25:18;1.10;;;0.40;;
46429;SDS011;32131;53.454;-6.180;2022-12-07T13:27:54;2.35;;;0.63;;
46429;SDS011;32131;53.454;-6.180;2022-12-07T13:30:25;1.65;;;0.70;;
46429;SDS011;32131;53.454;-6.180;2022-12-07T13:32:57;1.52;;;0.52;;
46429;SDS011;32131;53.454;-6.180;2022-12-07T13:35:27;1.95;;;0.60;;
46429;SDS011;32131;53.454;-6.180;2022-12-07T13:38:16;2.80;;;0.95;;
46429;SDS011;32131;53.454;-6.180;2022-12-07T13:43:43;3.03;;;0.77;;
46429;SDS011;32131;53.454;-6.180;2022-12-07T13:46:17;5.68;;;1.27;;
46429;SDS011;32131;53.454;-6.180;2022-12-07T13:48:51;1.95;;;0.70;;
46429;SDS011;32131;53.454;-6.180;2022-12-07T13:51:20;4.97;;;0.68;;
46429;SDS011;32131;53.454;-6.180;2022-12-07T13:56:28;3.25;;;0.68;;
46429;SDS011;32131;53.454;-6.180;2022-12-07T13:59:10;8.05;;;1.20;;
46429;SDS011;32131;53.454;-6.180;2022-12-07T14:01:41;2.10;;;0.52;;
46429;SDS011;32131;53.454;-6.180;2022-12-07T14:04:17;7.43;;;0.82;;
46429;SDS011;32131;53.454;-6.180;2022-12-07T14:06:47;1.33;;;0.52;;
46429;SDS011;32131;53.454;-6.180;2022-12-07T14:09:19;3.08;;;0.57;;
46429;SDS011;32131;53.454;-6.180;2022-12-07T14:11:50;2.65;;;0.90;;
46429;SDS011;32131;53.454;-6.180;2022-12-07T14:14:21;4.43;;;0.63;;
46429;SDS011;32131;53.454;-6.180;2022-12-07T14:16:57;4.25;;;0.90;;
46429;SDS011;32131;53.454;-6.180;2022-12-07T14:19:46;5.50;;;0.85;;
46429;SDS011;32131;53.454;-6.180;2022-12-07T14:22:19;2.03;;;0.88;;
46429;SDS011;32131;53.454;-6.180;2022-12-07T14:24:57;2.60;;;0.80;;
46429;SDS011;32131;53.454;-6.180;2022-12-07T14:27:30;5.20;;;0.82;;
46429;SDS011;32131;53.454;-6.180;2022-12-07T14:30:01;4.78;;;0.40;;
46429;SDS011;32131;53.454;-6.180;2022-12-07T14:32:30;0.80;;;0.40;;
46429;SDS011;32131;53.454;-6.180;2022-12-07T14:35:03;2.05;;;0.60;;
46429;SDS011;32131;53.454;-6.180;2022-12-07T14:37:38;3.78;;;0.63;;
46429;SDS011;32131;53.454;-6.180;2022-12-07T14:42:41;1.35;;;0.30;;
46429;SDS011;32131;53.454;-6.180;2022-12-07T14:45:13;4.03;;;0.50;;
46429;SDS011;32131;53.454;-6.180;2022-12-07T14:47:43;2.03;;;0.75;;
46429;SDS011;32131;53.454;-6.180;2022-12-07T14:50:33;4.35;;;0.47;;
46429;SDS011;32131;53.454;-6.180;2022-12-07T14:53:10;3.28;;;0.75;;
46429;SDS011;32131;53.454;-6.180;2022-12-07T14:55:49;2.92;;;0.65;;
46429;SDS011;32131;53.454;-6.180;2022-12-07T14:58:18;7.18;;;2.03;;
46429;SDS011;32131;53.454;-6.180;2022-12-07T15:00:47;6.22;;;2.30;;
46429;SDS011;32131;53.454;-6.180;2022-12-07T15:03:15;7.47;;;1.77;;
46429;SDS011;32131;53.454;-6.180;2022-12-07T15:05:43;14.57;;;5.15;;
46429;SDS011;32131;53.454;-6.180;2022-12-07T15:08:12;7.35;;;2.67;;
46429;SDS011;32131;53.454;-6.180;2022-12-07T15:10:42;5.35;;;2.40;;
46429;SDS011;32131;53.454;-6.180;2022-12-07T15:13:10;2.70;;;1.10;;
46429;SDS011;32131;53.454;-6.180;2022-12-07T15:15:57;1.15;;;0.43;;
46429;SDS011;32131;53.454;-6.180;2022-12-07T15:18:25;6.20;;;1.35;;
46429;SDS011;32131;53.454;-6.180;2022-12-07T15:20:54;9.77;;;2.17;;
46429;SDS011;32131;53.454;-6.180;2022-12-07T15:23:22;6.10;;;0.93;;
46429;SDS011;32131;53.454;-6.180;2022-12-07T15:25:51;4.00;;;1.63;;
46429;SDS011;32131;53.454;-6.180;2022-12-07T15:28:19;5.88;;;1.30;;
46429;SDS011;32131;53.454;-6.180;2022-12-07T15:30:47;5.10;;;1.27;;
46429;SDS011;32131;53.454;-6.180;2022-12-07T15:33:17;2.05;;;0.70;;
46429;SDS011;32131;53.454;-6.180;2022-12-07T15:35:45;6.90;;;0.63;;
46429;SDS011;32131;53.454;-6.180;2022-12-07T15:38:15;7.25;;;1.83;;
46429;SDS011;32131;53.454;-6.180;2022-12-07T15:41:04;7.55;;;1.40;;
46429;SDS011;32131;53.454;-6.180;2022-12-07T15:43:32;4.10;;;1.13;;
46429;SDS011;32131;53.454;-6.180;2022-12-07T15:46:20;4.57;;;1.80;;
46429;SDS011;32131;53.454;-6.180;2022-12-07T15:48:50;4.03;;;1.98;;
46429;SDS011;32131;53.454;-6.180;2022-12-07T15:51:18;7.45;;;2.38;;
46429;SDS011;32131;53.454;-6.180;2022-12-07T15:53:50;7.70;;;2.80;;
46429;SDS011;32131;53.454;-6.180;2022-12-07T15:56:18;4.65;;;1.50;;
46429;SDS011;32131;53.454;-6.180;2022-12-07T15:58:47;2.10;;;1.00;;
46429;SDS011;32131;53.454;-6.180;2022-12-07T16:01:16;6.22;;;1.50;;